createdAt,value
2018-03-27T00:00:56.257Z,99059.71
2018-03-27T00:03:22.751Z,99059.67
2018-03-27T00:05:49.210Z,99064.83
2018-03-27T00:08:15.641Z,99073.98
2018-03-27T00:10:42.109Z,99080.48
2018-03-27T00:13:08.542Z,99080.42
2018-03-27T00:15:35.009Z,99079.61
2018-03-27T00:18:01.441Z,99081.87
2018-03-27T00:20:27.901Z,99082.56
2018-03-27T00:22:54.337Z,99087.78
2018-03-27T00:25:20.773Z,99082.69
2018-03-27T00:27:59.382Z,99078.72
2018-03-27T00:30:44.206Z,99073.89
2018-03-27T00:33:28.681Z,99073.56
2018-03-27T00:36:13.108Z,99071.95
2018-03-27T00:38:57.762Z,99067.26
2018-03-27T00:55:04.750Z,99095.23
2018-03-27T00:57:31.182Z,99106.36
2018-03-27T00:59:57.614Z,99104.28
2018-03-27T01:02:24.049Z,99106.02
2018-03-27T01:04:50.557Z,99113.59
2018-03-27T01:07:17.033Z,99105.62
2018-03-27T01:09:43.626Z,99104.25
2018-03-27T01:12:10.087Z,99102.48
2018-03-27T01:14:36.530Z,99088.56
2018-03-27T01:17:02.982Z,99092.14
2018-03-27T01:19:29.478Z,99095.77
2018-03-27T01:21:55.977Z,99103.05
2018-03-27T01:24:22.440Z,99105.70
2018-03-27T01:26:48.985Z,99104.03
2018-03-27T01:29:15.486Z,99100.03
2018-03-27T01:31:41.969Z,99098.78
2018-03-27T01:34:08.478Z,99095.83
2018-03-27T01:36:34.958Z,99091.50
2018-03-27T01:39:01.465Z,99094.98
2018-03-27T01:41:27.929Z,99094.22
2018-03-27T01:43:54.383Z,99105.53
2018-03-27T01:46:20.903Z,99108.02
2018-03-27T01:48:47.406Z,99110.17
2018-03-27T01:51:13.821Z,99100.81
2018-03-27T01:53:40.358Z,99093.34
2018-03-27T01:56:06.842Z,99093.50
2018-03-27T01:58:33.320Z,99096.73
2018-03-27T02:00:59.838Z,99106.52
2018-03-27T02:03:26.302Z,99110.05
2018-03-27T02:05:52.881Z,99107.98
2018-03-27T02:08:19.379Z,99106.37
2018-03-27T02:10:45.929Z,99108.16
2018-03-27T02:13:18.577Z,99112.09
2018-03-27T02:15:51.099Z,99112.83
2018-03-27T02:18:23.530Z,99110.91
2018-03-27T02:20:56.076Z,99112.22
2018-03-27T02:23:28.501Z,99117.52
2018-03-27T02:25:54.966Z,99108.22
2018-03-27T02:28:21.401Z,99117.14
2018-03-27T02:30:47.932Z,99112.81
2018-03-27T02:33:14.422Z,99114.16
2018-03-27T02:35:40.922Z,99119.00
2018-03-27T02:38:07.374Z,99127.27
2018-03-27T02:40:33.867Z,99126.90
2018-03-27T02:43:00.382Z,99123.82
2018-03-27T02:45:26.876Z,99128.81
2018-03-27T02:47:53.363Z,99135.00
2018-03-27T02:50:19.887Z,99133.95
2018-03-27T02:52:46.382Z,99136.86
2018-03-27T02:55:12.922Z,99131.22
2018-03-27T02:57:39.460Z,99137.34
2018-03-27T03:00:05.913Z,99138.63
2018-03-27T03:02:32.362Z,99141.82
2018-03-27T03:04:58.900Z,99149.66
2018-03-27T03:07:25.458Z,99153.09
2018-03-27T03:09:51.907Z,99158.77
2018-03-27T03:12:18.388Z,99153.09
2018-03-27T03:14:44.911Z,99156.33
2018-03-27T03:17:11.391Z,99161.88
2018-03-27T03:19:37.963Z,99152.54
2018-03-27T03:22:04.461Z,99145.34
2018-03-27T03:24:30.957Z,99149.20
2018-03-27T03:26:57.455Z,99148.78
2018-03-27T03:29:23.965Z,99144.20
2018-03-27T03:31:50.677Z,99150.41
2018-03-27T03:34:17.361Z,99156.97
2018-03-27T03:36:43.902Z,99154.86
2018-03-27T03:39:10.370Z,99160.16
2018-03-27T03:41:36.833Z,99156.22
2018-03-27T03:44:03.341Z,99161.78
2018-03-27T03:46:29.821Z,99171.69
2018-03-27T03:48:56.644Z,99168.24
2018-03-27T03:51:23.094Z,99161.78
2018-03-27T03:53:49.588Z,99166.85
2018-03-27T03:56:16.061Z,99169.87
2018-03-27T03:58:42.522Z,99170.20
2018-03-27T04:01:09.246Z,99164.66
2018-03-27T04:03:36.398Z,99174.34
2018-03-27T04:06:03.110Z,99172.77
2018-03-27T04:08:29.649Z,99163.72
2018-03-27T04:10:56.068Z,99172.72
2018-03-27T04:13:22.510Z,99176.45
2018-03-27T04:15:48.966Z,99179.78
2018-03-27T04:18:15.496Z,99181.77
2018-03-27T04:20:42.084Z,99183.17
2018-03-27T04:23:08.549Z,99183.91
2018-03-27T04:25:35.141Z,99188.16
2018-03-27T04:28:01.664Z,99191.01
2018-03-27T04:30:28.162Z,99188.22
2018-03-27T04:32:54.638Z,99189.20
2018-03-27T04:35:21.134Z,99194.11
2018-03-27T04:37:47.650Z,99199.81
2018-03-27T04:40:14.174Z,99201.12
2018-03-27T04:42:40.661Z,99206.30
2018-03-27T04:45:07.093Z,99205.70
2018-03-27T04:47:33.598Z,99202.63
2018-03-27T04:50:00.082Z,99210.89
2018-03-27T04:52:26.540Z,99209.86
2018-03-27T04:54:53.046Z,99215.51
2018-03-27T04:57:19.697Z,99215.70
2018-03-27T04:59:46.214Z,99217.78
2018-03-27T05:02:12.666Z,99219.12
2018-03-27T05:04:39.137Z,99220.66
2018-03-27T05:07:05.656Z,99216.61
2018-03-27T05:09:32.109Z,99222.52
2018-03-27T05:11:58.593Z,99225.11
2018-03-27T05:14:25.109Z,99223.23
2018-03-27T05:16:51.559Z,99222.91
2018-03-27T05:19:18.167Z,99223.11
2018-03-27T05:21:44.629Z,99219.84
2018-03-27T05:24:11.149Z,99218.44
2018-03-27T05:26:37.584Z,99213.77
2018-03-27T05:29:04.085Z,99220.94
2018-03-27T05:31:30.789Z,99222.84
2018-03-27T05:33:57.673Z,99223.16
2018-03-27T05:36:24.161Z,99225.46
2018-03-27T05:38:50.683Z,99229.98
2018-03-27T05:41:17.326Z,99235.55
2018-03-27T05:43:43.797Z,99236.65
2018-03-27T05:46:10.330Z,99231.73
2018-03-27T05:48:36.817Z,99232.39
2018-03-27T05:51:03.379Z,99239.74
2018-03-27T05:53:29.861Z,99242.97
2018-03-27T05:55:56.425Z,99250.41
2018-03-27T05:58:22.878Z,99248.92
2018-03-27T06:00:49.365Z,99244.05
2018-03-27T06:03:15.829Z,99242.59
2018-03-27T06:05:42.329Z,99244.35
2018-03-27T06:08:08.833Z,99243.68
2018-03-27T06:10:35.322Z,99240.11
2018-03-27T06:13:02.208Z,99241.19
2018-03-27T06:15:29.049Z,99246.06
2018-03-27T06:17:55.566Z,99244.85
2018-03-27T06:20:22.050Z,99252.48
2018-03-27T06:22:48.552Z,99246.23
2018-03-27T06:25:15.002Z,99245.97
2018-03-27T06:27:41.504Z,99243.55
2018-03-27T06:30:08.049Z,99245.54
2018-03-27T06:32:34.536Z,99249.14
2018-03-27T06:35:01.035Z,99243.62
2018-03-27T06:37:27.477Z,99245.36
2018-03-27T06:39:53.926Z,99248.69
2018-03-27T06:42:20.463Z,99253.23
2018-03-27T06:44:46.888Z,99255.73
2018-03-27T06:47:13.430Z,99248.13
2018-03-27T06:49:39.876Z,99251.19
2018-03-27T06:52:06.393Z,99252.98
2018-03-27T06:54:32.843Z,99250.56
2018-03-27T06:56:59.289Z,99246.77
2018-03-27T06:59:25.784Z,99246.37
2018-03-27T07:01:52.333Z,99252.29
2018-03-27T07:04:18.841Z,99248.39
2018-03-27T07:06:45.338Z,99241.23
2018-03-27T07:09:11.847Z,99240.23
2018-03-27T07:11:38.340Z,99246.94
2018-03-27T07:14:04.875Z,99242.48
2018-03-27T07:16:31.438Z,99245.87
2018-03-27T07:18:58.023Z,99244.16
2018-03-27T07:21:24.513Z,99240.36
2018-03-27T07:23:51.046Z,99242.30
2018-03-27T07:26:17.607Z,99241.11
2018-03-27T07:28:44.155Z,99243.22
2018-03-27T07:31:10.760Z,99240.16
2018-03-27T07:33:37.275Z,99243.55
2018-03-27T07:36:03.739Z,99241.86
2018-03-27T07:38:30.283Z,99241.56
2018-03-27T07:40:56.864Z,99239.48
2018-03-27T07:43:23.354Z,99237.84
2018-03-27T07:45:49.865Z,99236.88
2018-03-27T07:48:16.397Z,99235.39
2018-03-27T07:50:43.029Z,99227.80
2018-03-27T07:53:09.579Z,99228.74
2018-03-27T07:55:36.113Z,99224.08
2018-03-27T07:58:02.670Z,99222.53
2018-03-27T08:00:29.162Z,99235.17
2018-03-27T08:02:55.639Z,99233.70
2018-03-27T08:05:22.198Z,99230.50
2018-03-27T08:07:48.677Z,99227.75
2018-03-27T08:10:15.164Z,99227.70
2018-03-27T08:12:41.714Z,99229.27
2018-03-27T08:15:08.237Z,99228.98
2018-03-27T08:17:34.744Z,99228.33
2018-03-27T08:20:01.703Z,99221.08
2018-03-27T08:22:28.251Z,99221.62
2018-03-27T08:24:54.766Z,99222.50
2018-03-27T08:27:21.267Z,99232.99
2018-03-27T08:29:47.842Z,99229.94
2018-03-27T08:32:14.549Z,99226.85
2018-03-27T08:34:41.124Z,99220.83
2018-03-27T08:37:07.582Z,99218.80
2018-03-27T08:39:34.386Z,99218.48
2018-03-27T08:42:01.093Z,99223.34
2018-03-27T08:44:27.632Z,99220.45
2018-03-27T08:46:54.122Z,99224.46
2018-03-27T08:49:20.739Z,99223.75
2018-03-27T08:51:47.202Z,99217.18
2018-03-27T08:54:13.661Z,99219.67
2018-03-27T08:56:40.165Z,99214.16
2018-03-27T08:59:06.806Z,99212.20
2018-03-27T09:01:33.459Z,99216.37
2018-03-27T09:04:00.022Z,99216.91
2018-03-27T09:06:26.724Z,99217.11
2018-03-27T09:08:53.228Z,99210.45
2018-03-27T09:11:19.708Z,99213.02
2018-03-27T09:13:46.369Z,99215.08
2018-03-27T09:16:13.021Z,99214.84
2018-03-27T09:18:39.549Z,99215.02
2018-03-27T09:21:06.069Z,99212.66
2018-03-27T09:23:32.619Z,99209.92
2018-03-27T09:25:59.079Z,99208.86
2018-03-27T09:28:25.742Z,99202.50
2018-03-27T09:30:52.246Z,99203.34
2018-03-27T09:33:18.771Z,99208.72
2018-03-27T09:35:45.517Z,99203.48
2018-03-27T09:38:11.998Z,99204.59
2018-03-27T09:40:38.565Z,99207.08
2018-03-27T09:43:05.070Z,99212.02
2018-03-27T09:45:31.711Z,99214.45
2018-03-27T09:47:58.201Z,99214.52
2018-03-27T09:50:24.718Z,99209.23
2018-03-27T09:52:51.284Z,99203.13
2018-03-27T09:55:17.910Z,99203.77
2018-03-27T09:57:44.414Z,99199.68
2018-03-27T10:00:10.973Z,99195.41
2018-03-27T10:02:37.502Z,99191.84
2018-03-27T10:05:04.291Z,99196.10
2018-03-27T10:07:30.962Z,99184.58
2018-03-27T10:09:57.498Z,99182.53
2018-03-27T10:12:24.026Z,99186.37
2018-03-27T10:14:50.545Z,99180.81
2018-03-27T10:17:17.034Z,99183.78
2018-03-27T10:19:43.554Z,99185.03
2018-03-27T10:22:10.089Z,99187.34
2018-03-27T10:24:36.589Z,99188.70
2018-03-27T10:27:03.302Z,99186.33
2018-03-27T10:29:30.378Z,99187.54
2018-03-27T10:31:57.007Z,99182.77
2018-03-27T10:34:23.757Z,99183.51
2018-03-27T10:36:50.335Z,99178.55
2018-03-27T10:39:16.864Z,99171.92
2018-03-27T10:41:43.347Z,99170.42
2018-03-27T10:44:10.002Z,99166.73
2018-03-27T10:46:36.792Z,99172.60
2018-03-27T10:49:03.492Z,99173.84
2018-03-27T10:51:30.172Z,99172.91
2018-03-27T10:53:56.946Z,99168.25
2018-03-27T10:56:23.548Z,99169.33
2018-03-27T10:58:50.800Z,99167.10
2018-03-27T11:01:17.425Z,99165.62
2018-03-27T11:03:44.055Z,99160.91
2018-03-27T11:06:11.430Z,99158.33
2018-03-27T11:08:39.293Z,99146.30
2018-03-27T11:11:08.814Z,99151.92
2018-03-27T11:13:35.487Z,99150.25
2018-03-27T11:16:02.567Z,99145.84
2018-03-27T11:18:29.252Z,99156.58
2018-03-27T11:20:55.859Z,99155.14
2018-03-27T11:23:22.450Z,99155.05
2018-03-27T11:25:49.453Z,99160.22
2018-03-27T11:28:16.142Z,99148.75
2018-03-27T11:30:42.972Z,99158.22
2018-03-27T11:33:09.646Z,99160.81
2018-03-27T11:35:36.460Z,99157.98
2018-03-27T11:38:03.191Z,99152.91
2018-03-27T11:40:29.961Z,99161.08
2018-03-27T11:42:56.587Z,99163.38
2018-03-27T11:45:23.837Z,99158.83
2018-03-27T11:47:51.764Z,99163.94
2018-03-27T11:50:18.342Z,99164.94
2018-03-27T11:52:44.950Z,99167.19
2018-03-27T11:55:11.777Z,99171.72
2018-03-27T11:57:38.518Z,99176.48
2018-03-27T12:00:06.371Z,99186.83
2018-03-27T12:02:33.718Z,99193.22
2018-03-27T12:05:08.038Z,99189.44
2018-03-27T12:07:36.120Z,99191.52
2018-03-27T12:10:03.181Z,99186.43
2018-03-27T12:12:30.123Z,99197.11
2018-03-27T12:14:57.090Z,99196.70
2018-03-27T12:17:24.219Z,99205.98
2018-03-27T12:19:50.898Z,99208.33
2018-03-27T12:22:17.607Z,99218.52
2018-03-27T12:24:44.322Z,99217.69
2018-03-27T12:27:10.855Z,99222.81
2018-03-27T12:29:37.465Z,99226.22
2018-03-27T12:32:03.994Z,99221.52
2018-03-27T12:34:34.622Z,99224.06
2018-03-27T12:37:02.072Z,99223.34
2018-03-27T12:39:28.686Z,99219.86
2018-03-27T12:41:55.170Z,99216.16
2018-03-27T12:44:34.235Z,99216.09
2018-03-27T12:47:01.768Z,99215.48
2018-03-27T12:49:32.630Z,99210.17
2018-03-27T12:51:59.341Z,99213.98
2018-03-27T12:54:25.773Z,99211.92
2018-03-27T12:56:52.189Z,99218.03
2018-03-27T12:59:25.619Z,99228.50
2018-03-27T13:02:04.151Z,99232.38
2018-03-27T13:04:36.378Z,99227.95
2018-03-27T13:07:11.569Z,99225.25
2018-03-27T13:09:45.802Z,99225.36
2018-03-27T13:12:12.875Z,99227.27
2018-03-27T13:14:45.386Z,99225.58
2018-03-27T13:17:18.414Z,99223.08
2018-03-27T13:19:53.319Z,99223.02
2018-03-27T13:22:37.288Z,99220.25
2018-03-27T13:25:05.010Z,99225.70
2018-03-27T13:27:31.519Z,99226.09
2018-03-27T13:29:57.943Z,99233.55
2018-03-27T13:32:24.386Z,99239.05
2018-03-27T13:34:50.792Z,99243.09
2018-03-27T13:37:17.226Z,99242.89
2018-03-27T13:39:43.624Z,99239.53
2018-03-27T13:42:10.012Z,99245.70
2018-03-27T13:44:36.460Z,99244.36
2018-03-27T13:47:03.047Z,99241.77
2018-03-27T13:49:29.543Z,99247.84
2018-03-27T13:51:58.705Z,99246.99
2018-03-27T13:54:28.103Z,99247.42
2018-03-27T13:56:55.513Z,99249.48
2018-03-27T13:59:22.049Z,99254.50
2018-03-27T14:01:48.446Z,99250.89
2018-03-27T14:04:14.976Z,99249.45
2018-03-27T14:06:41.461Z,99247.33
2018-03-27T14:09:07.866Z,99236.94
2018-03-27T14:11:34.350Z,99237.17
2018-03-27T14:14:00.782Z,99233.51
2018-03-27T14:16:27.305Z,99225.95
2018-03-27T14:18:53.710Z,99220.21
2018-03-27T14:21:20.110Z,99222.13
2018-03-27T14:23:46.541Z,99223.50
2018-03-27T14:26:13.025Z,99223.29
2018-03-27T14:28:39.441Z,99221.63
2018-03-27T14:31:05.923Z,99211.80
2018-03-27T14:33:32.863Z,99213.57
2018-03-27T14:36:00.378Z,99217.16
2018-03-27T14:38:26.868Z,99217.38
2018-03-27T14:40:53.402Z,99219.41
2018-03-27T14:43:19.913Z,99216.41
2018-03-27T14:45:46.410Z,99220.17
2018-03-27T14:48:12.814Z,99219.22
2018-03-27T14:50:39.311Z,99219.22
2018-03-27T14:53:05.872Z,99215.48
2018-03-27T14:55:32.382Z,99212.56
2018-03-27T14:57:58.898Z,99216.23
2018-03-27T15:00:25.379Z,99220.71
2018-03-27T15:02:51.902Z,99219.64
2018-03-27T15:05:18.334Z,99219.42
2018-03-27T15:07:44.761Z,99222.53
2018-03-27T15:10:11.272Z,99225.59
2018-03-27T15:12:37.694Z,99223.70
2018-03-27T15:15:04.194Z,99221.92
2018-03-27T15:17:30.718Z,99229.50
2018-03-27T15:19:57.222Z,99229.64
2018-03-27T15:22:23.690Z,99229.81
2018-03-27T15:24:50.143Z,99224.70
2018-03-27T15:27:16.574Z,99226.27
2018-03-27T15:29:43.010Z,99231.53
2018-03-27T15:32:09.450Z,99225.80
2018-03-27T15:34:35.977Z,99225.98
2018-03-27T15:37:02.410Z,99224.13
2018-03-27T15:39:28.867Z,99229.83
2018-03-27T15:41:55.262Z,99230.86
2018-03-27T15:44:21.674Z,99232.28
2018-03-27T15:46:48.201Z,99231.20
2018-03-27T15:49:14.678Z,99232.13
2018-03-27T15:51:41.074Z,99234.62
2018-03-27T15:54:07.514Z,99232.03
2018-03-27T15:56:33.998Z,99235.77
2018-03-27T15:59:00.413Z,99242.03
2018-03-27T16:01:26.935Z,99246.73
2018-03-27T16:03:53.303Z,99254.34
2018-03-27T16:06:19.738Z,99251.84
2018-03-27T16:08:46.214Z,99249.11
2018-03-27T16:11:12.613Z,99252.77
2018-03-27T16:13:39.118Z,99258.56
2018-03-27T16:16:05.553Z,99262.41
2018-03-27T16:18:31.925Z,99265.92
2018-03-27T16:20:58.377Z,99261.23
2018-03-27T16:23:24.820Z,99264.16
2018-03-27T16:25:51.273Z,99273.06
2018-03-27T16:28:17.689Z,99271.81
2018-03-27T16:30:44.171Z,99270.92
2018-03-27T16:33:10.613Z,99269.25
2018-03-27T16:35:37.025Z,99272.70
2018-03-27T16:38:03.521Z,99270.03
2018-03-27T16:40:30.110Z,99276.19
2018-03-27T16:42:56.566Z,99275.05
2018-03-27T16:45:22.933Z,99274.12
2018-03-27T16:47:49.388Z,99272.91
2018-03-27T16:50:15.784Z,99279.64
2018-03-27T16:52:42.205Z,99278.22
2018-03-27T16:55:08.642Z,99274.69
2018-03-27T16:57:35.085Z,99271.63
2018-03-27T17:00:01.517Z,99275.00
2018-03-27T17:02:28.009Z,99271.41
2018-03-27T17:04:54.473Z,99278.64
2018-03-27T17:07:20.810Z,99281.02
2018-03-27T17:09:47.246Z,99279.77
2018-03-27T17:12:13.642Z,99284.64
2018-03-27T17:14:40.050Z,99282.02
2018-03-27T17:17:06.526Z,99295.25
2018-03-27T17:19:32.962Z,99297.52
2018-03-27T17:21:59.374Z,99299.66
2018-03-27T17:24:25.808Z,99302.30
2018-03-27T17:26:52.327Z,99309.34
2018-03-27T17:29:18.732Z,99320.86
2018-03-27T17:31:45.133Z,99333.20
2018-03-27T17:34:11.498Z,99335.91
2018-03-27T17:36:37.901Z,99343.84
2018-03-27T17:39:04.420Z,99339.06
2018-03-27T17:41:30.837Z,99345.75
2018-03-27T17:43:57.382Z,99350.98
2018-03-27T17:46:23.822Z,99351.41
2018-03-27T17:48:50.285Z,99350.55
2018-03-27T17:51:17.714Z,99348.81
2018-03-27T17:53:44.117Z,99344.96
2018-03-27T17:56:11.285Z,99355.10
2018-03-27T17:58:37.725Z,99358.95
2018-03-27T18:01:04.266Z,99358.48
2018-03-27T18:03:30.692Z,99360.20
2018-03-27T18:05:57.083Z,99369.02
2018-03-27T18:08:23.494Z,99366.78
2018-03-27T18:10:49.902Z,99370.86
2018-03-27T18:13:16.316Z,99373.92
2018-03-27T18:15:42.777Z,99373.00
2018-03-27T18:18:09.161Z,99385.05
2018-03-27T18:20:35.542Z,99396.40
2018-03-27T18:23:02.110Z,99404.72
2018-03-27T18:25:28.506Z,99407.00
2018-03-27T18:27:54.902Z,99414.44
2018-03-27T18:30:21.321Z,99418.38
2018-03-27T18:32:48.788Z,99427.17
2018-03-27T18:35:15.229Z,99436.75
2018-03-27T18:37:41.649Z,99438.49
2018-03-27T18:40:08.006Z,99448.79
2018-03-27T18:42:34.394Z,99454.25
2018-03-27T18:45:00.832Z,99453.89
2018-03-27T18:47:27.342Z,99465.94
2018-03-27T18:49:54.583Z,99469.78
2018-03-27T18:52:21.022Z,99474.59
2018-03-27T18:54:47.437Z,99476.34
2018-03-27T18:57:13.813Z,99480.62
2018-03-27T18:59:40.222Z,99477.09
2018-03-27T19:02:06.639Z,99474.89
2018-03-27T19:04:33.034Z,99474.75
2018-03-27T19:06:59.425Z,99477.38
2018-03-27T19:09:25.894Z,99479.09
2018-03-27T19:11:52.290Z,99472.95
2018-03-27T19:14:18.708Z,99470.73
2018-03-27T19:16:45.162Z,99472.84
2018-03-27T19:19:11.539Z,99477.75
2018-03-27T19:21:37.929Z,99475.12
2018-03-27T19:24:04.397Z,99483.11
2018-03-27T19:26:30.798Z,99479.94
2018-03-27T19:28:57.237Z,99495.70
2018-03-27T19:31:23.698Z,99501.30
2018-03-27T19:33:50.093Z,99490.94
2018-03-27T19:36:16.486Z,99499.61
2018-03-27T19:38:42.969Z,99494.89
2018-03-27T19:41:09.429Z,99488.22
2018-03-27T19:43:35.817Z,99486.69
2018-03-27T19:46:02.198Z,99483.20
2018-03-27T19:48:28.631Z,99490.73
2018-03-27T19:50:55.054Z,99485.44
2018-03-27T19:53:21.454Z,99478.44
2018-03-27T19:55:47.906Z,99480.34
2018-03-27T19:58:14.302Z,99468.02
2018-03-27T20:00:40.657Z,99464.86
2018-03-27T20:03:07.234Z,99464.22
2018-03-27T20:05:33.605Z,99474.55
2018-03-27T20:07:59.990Z,99477.54
2018-03-27T20:10:26.406Z,99473.33
2018-03-27T20:12:52.779Z,99462.36
2018-03-27T20:15:19.143Z,99467.43
2018-03-27T20:17:45.498Z,99471.34
2018-03-27T20:20:11.853Z,99473.20
2018-03-27T20:22:38.239Z,99471.15
2018-03-27T20:25:04.749Z,99474.52
2018-03-27T20:27:31.213Z,99465.44
2018-03-27T20:29:57.675Z,99462.69
2018-03-27T20:32:24.073Z,99467.83
2018-03-27T20:34:50.478Z,99467.74
2018-03-27T20:37:16.906Z,99465.97
2018-03-27T20:39:43.270Z,99465.12
2018-03-27T20:42:09.629Z,99473.08
2018-03-27T20:44:36.060Z,99475.98
2018-03-27T20:47:02.494Z,99480.77
2018-03-27T20:49:28.882Z,99483.02
2018-03-27T20:51:55.275Z,99475.14
2018-03-27T20:54:21.657Z,99481.45
2018-03-27T20:56:48.021Z,99482.33
2018-03-27T20:59:14.398Z,99483.48
2018-03-27T21:01:40.765Z,99471.55
2018-03-27T21:04:07.181Z,99464.92
2018-03-27T21:06:33.590Z,99466.11
2018-03-27T21:08:59.938Z,99474.42
2018-03-27T21:11:26.301Z,99468.19
2018-03-27T21:13:52.938Z,99461.64
2018-03-27T21:16:19.359Z,99459.34
2018-03-27T21:18:45.718Z,99469.08
2018-03-27T21:21:12.135Z,99469.86
2018-03-27T21:23:38.482Z,99472.34
2018-03-27T21:26:05.063Z,99474.08
2018-03-27T21:28:31.448Z,99462.26
2018-03-27T21:30:57.906Z,99471.39
2018-03-27T21:33:24.282Z,99478.77
2018-03-27T21:35:50.730Z,99481.45
2018-03-27T21:38:17.131Z,99483.08
2018-03-27T21:40:43.491Z,99474.70
2018-03-27T21:43:09.851Z,99471.55
2018-03-27T21:45:36.205Z,99472.28
2018-03-27T21:48:02.569Z,99474.95
2018-03-27T21:50:28.963Z,99476.64
2018-03-27T21:52:55.586Z,99473.57
2018-03-27T21:55:22.032Z,99477.09
2018-03-27T21:57:48.462Z,99474.27
2018-03-27T22:00:14.958Z,99474.87
2018-03-27T22:02:41.402Z,99481.58
2018-03-27T22:05:07.896Z,99469.90
2018-03-27T22:07:34.337Z,99468.10
2018-03-27T22:10:00.713Z,99455.26
2018-03-27T22:12:27.077Z,99459.56
2018-03-27T22:14:53.434Z,99461.13
2018-03-27T22:17:19.829Z,99464.20
2018-03-27T22:19:46.210Z,99469.12
2018-03-27T22:22:12.574Z,99462.20
2018-03-27T22:24:38.949Z,99469.77
2018-03-27T22:27:05.318Z,99469.52
2018-03-27T22:29:31.709Z,99470.36
2018-03-27T22:31:58.129Z,99471.58
2018-03-27T22:34:24.522Z,99470.91
2018-03-27T22:36:50.883Z,99466.45
2018-03-27T22:39:17.258Z,99461.75
2018-03-27T22:41:43.612Z,99452.69
2018-03-27T22:44:10.006Z,99455.29
2018-03-27T22:46:36.357Z,99459.58
2018-03-27T22:49:02.723Z,99456.41
2018-03-27T22:51:29.113Z,99454.61
2018-03-27T22:53:55.741Z,99460.64
2018-03-27T22:56:22.150Z,99466.95
2018-03-27T22:58:48.865Z,99460.58
2018-03-27T23:01:15.228Z,99463.49
2018-03-27T23:03:41.593Z,99456.64
2018-03-27T23:06:07.964Z,99456.73
2018-03-27T23:08:34.366Z,99452.24
2018-03-27T23:11:00.730Z,99442.42
2018-03-27T23:13:27.093Z,99453.87
2018-03-27T23:15:53.506Z,99441.32
2018-03-27T23:18:19.949Z,99444.41
2018-03-27T23:20:46.357Z,99445.29
2018-03-27T23:23:12.718Z,99442.12
2018-03-27T23:25:39.098Z,99442.95
2018-03-27T23:28:05.462Z,99443.63
2018-03-27T23:30:31.866Z,99443.63
2018-03-27T23:32:58.242Z,99449.42
2018-03-27T23:35:24.613Z,99445.59
2018-03-27T23:37:51.168Z,99439.53
2018-03-27T23:40:17.623Z,99443.41
2018-03-27T23:42:43.978Z,99443.33
2018-03-27T23:45:10.394Z,99436.59
2018-03-27T23:47:36.854Z,99439.63
2018-03-27T23:50:03.278Z,99443.73
2018-03-27T23:52:29.662Z,99456.61
2018-03-27T23:54:56.041Z,99450.78
2018-03-27T23:57:22.430Z,99450.78
2018-03-27T23:59:48.801Z,99457.38
